South Lynchburg, South Carolina
Current Conditions -  °F | °C
As of 3:55 AM on Monday 22 Dec 2014 (Local Time) from KSMS Reporting Station
Light Rain Light Rain  
Wind Chill: 40°   Ceiling: 700
Heat Index: 45°   Visibility: 4mi
Dew Point: 43°   Wind: 8mph
Humidity: 93%   Direction: 30°NNE
Pressure: 30.1"   Gusts: NA
Location:  34.0395°N, 80.1095°W
Report Text: KSMS 220855Z AUTO 03007KT 4SM -RA BKN007 BKN013 OVC018 07/06 A3010 RMK AO2
Loading
Personal Weather Stations






























Interactive Weather Map New forecast layout! Learn more

10-Day Weather Forecast

Advertisements
Track Severe Weather on mobile